Time;durP1;ratioP1;P1;durP2;ratioP2;P2;SDS_P1;SDS_P2;PMS_P1;PMS_P2;Temp;Humidity;BMP_temperature;BMP_pressure;BME280_temperature;BME280_humidity;BME280_pressure;Samples;Min_cycle;Max_cycle;Signal;HPM_P1;HPM_P2
2022/01/27 08:11:06;;;;;;;;;;;;;;;1.69;100.00;99400.69;5934490;23;19959;31
2022/01/27 08:13:33;;;;;;;;;;;;;;;1.62;100.00;99398.38;4863068;29;19974;-71
2022/01/27 08:16:04;;;;;;;;;;;;;;;1.65;100.00;99406.03;4862077;29;19952;-71
2022/01/27 08:18:43;;;;;;;;;;;;;;;1.65;100.00;99406.03;4862639;29;19959;-71
2022/01/27 08:21:10;;;;;;;;;;;;;;;1.72;100.00;99422.94;4863762;29;20248;-71
2022/01/27 08:23:40;;;;;;;;;;;;;;;1.47;100.00;99417.22;4863695;29;20271;-71
2022/01/27 08:26:10;;;;;;;;;;;;;;;1.39;100.00;99410.50;4849683;29;19950;-72
2022/01/27 08:28:46;;;;;;;;;;;;;;;1.34;100.00;99424.41;4864860;29;20259;-72
2022/01/27 08:31:14;;;;;;;;;;;;;;;1.33;100.00;99422.75;4864640;29;19952;-71
2022/01/27 08:33:42;;;;;;;;;;;;;;;1.36;100.00;99421.31;4864962;29;19970;-71
2022/01/27 08:36:09;;;;;;;;;;;;;;;1.26;100.00;99430.63;4856294;29;19955;-71
2022/01/27 08:38:43;;;;;;;;;;;;;;;1.30;100.00;99434.41;4864831;29;20265;-71
2022/01/27 08:41:10;;;;;;;;;;;;;;;1.37;100.00;99436.75;4862897;29;19954;-71
2022/01/27 08:43:38;;;;;;;;;;;;;;;1.40;100.00;99438.88;4864768;29;19986;-71
2022/01/27 08:46:05;;;;;;;;;;;;;;;1.39;100.00;99442.75;4864347;29;19951;-71
2022/01/27 08:48:35;;;;;;;;;;;;;;;1.43;100.00;99439.06;4857364;29;19954;-71
2022/01/27 08:51:05;;;;;;;;;;;;;;;1.42;100.00;99448.44;4865534;29;20235;-71
2022/01/27 08:53:48;;;;;;;;;;;;;;;1.38;100.00;99449.38;4863179;29;19970;-71
2022/01/27 08:56:19;;;;;;;;;;;;;;;1.40;100.00;99458.97;4864758;29;19957;-71
2022/01/27 08:58:46;;;;;;;;;;;;;;;1.35;100.00;99456.31;4860121;29;20256;-71
2022/01/27 09:01:14;;;;;;;;;;;;;;;1.34;100.00;99457.47;4864959;29;19952;-71
2022/01/27 09:03:41;;;;;;;;;;;;;;;1.28;100.00;99461.44;4864627;29;19960;-71
2022/01/27 09:06:08;;;;;;;;;;;;;;;1.33;100.00;99466.84;4849574;29;19960;-71
2022/01/27 09:08:38;;;;;;;;;;;;;;;1.40;100.00;99472.75;4864185;29;20344;-71
2022/01/27 09:11:06;;;;;;;;;;;;;;;1.45;100.00;99469.88;4864429;29;19961;-71
2022/01/27 09:13:33;;;;;;;;;;;;;;;1.46;100.00;99471.53;4864302;29;20264;-71
2022/01/27 09:16:00;;;;;;;;;;;;;;;1.49;100.00;99468.16;4863746;29;19960;-71
2022/01/27 09:18:28;;;;;;;;;;;;;;;1.47;100.00;99469.59;4860816;29;19954;-71
2022/01/27 09:20:58;;;;;;;;;;;;;;;1.58;100.00;99466.28;4864129;29;19985;-71
2022/01/27 09:23:26;;;;;;;;;;;;;;;1.53;100.00;99474.69;4859731;29;20027;-72
2022/01/27 09:26:01;;;;;;;;;;;;;;;1.59;100.00;99481.69;4861940;29;19961;-72
2022/01/27 09:28:28;;;;;;;;;;;;;;;1.57;100.00;99483.94;4863762;29;19953;-71
2022/01/27 09:30:56;;;;;;;;;;;;;;;1.65;100.00;99480.47;4864084;29;19954;-71
2022/01/27 09:33:23;;;;;;;;;;;;;;;1.70;100.00;99485.84;4863125;29;19969;-71
2022/01/27 09:35:51;;;;;;;;;;;;;;;1.71;100.00;99479.19;4862809;29;19952;-71
2022/01/27 09:38:18;;;;;;;;;;;;;;;1.64;100.00;99478.03;4861966;29;19951;-71
2022/01/27 09:40:50;;;;;;;;;;;;;;;1.66;100.00;99471.06;4862793;29;19963;-71
2022/01/27 09:43:19;;;;;;;;;;;;;;;1.61;100.00;99468.44;4861175;29;19960;-71
2022/01/27 09:45:47;;;;;;;;;;;;;;;1.62;100.00;99460.94;4859040;29;19955;-71
2022/01/27 09:48:16;;;;;;;;;;;;;;;1.64;100.00;99473.31;4863991;29;19958;-71
2022/01/27 09:53:15;;;;;;;;;;;;;;;1.82;100.00;99474.28;4863393;29;20597;-71
2022/01/27 09:55:45;;;;;;;;;;;;;;;1.86;100.00;99469.75;4863650;29;19951;-71
2022/01/27 09:58:12;;;;;;;;;;;;;;;1.96;100.00;99478.59;4863404;29;19952;-71
2022/01/27 10:00:40;;;;;;;;;;;;;;;2.03;100.00;99469.88;4863207;29;20249;-71
2022/01/27 10:03:07;;;;;;;;;;;;;;;2.06;100.00;99460.16;4863682;29;19951;-71
2022/01/27 10:05:35;;;;;;;;;;;;;;;2.15;100.00;99472.91;4862738;29;19956;-71
2022/01/27 10:08:04;;;;;;;;;;;;;;;2.14;100.00;99460.25;4863245;29;19969;-72
2022/01/27 10:10:42;;;;;;;;;;;;;;;2.22;100.00;99448.47;4862518;29;20221;-72
2022/01/27 10:13:11;;;;;;;;;;;;;;;2.25;100.00;99444.25;4863158;29;19980;-71
2022/01/27 10:15:43;;;;;;;;;;;;;;;2.38;100.00;99446.09;4862661;29;20341;-71
2022/01/27 10:18:14;;;;;;;;;;;;;;;2.40;100.00;99441.88;4869290;29;20345;-70
2022/01/27 10:20:42;;;;;;;;;;;;;;;2.44;100.00;99445.66;4863942;29;19958;-71
2022/01/27 10:23:15;;;;;;;;;;;;;;;2.51;100.00;99437.75;4863431;29;19953;-71
2022/01/27 10:25:51;;;;;;;;;;;;;;;2.56;100.00;99437.59;4863525;29;19987;-71
2022/01/27 10:28:22;;;;;;;;;;;;;;;2.57;100.00;99436.47;4863606;29;19973;-71
2022/01/27 10:30:58;;;;;;;;;;;;;;;2.66;100.00;99434.53;4862230;29;19965;-72
2022/01/27 10:33:25;;;;;;;;;;;;;;;2.71;100.00;99427.25;4863102;29;19961;-71
2022/01/27 10:35:53;;;;;;;;;;;;;;;2.68;100.00;99437.00;4863502;29;19959;-71
2022/01/27 10:38:20;;;;;;;;;;;;;;;2.78;100.00;99431.19;4863318;29;19951;-71
2022/01/27 10:40:48;;;;;;;;;;;;;;;2.81;100.00;99432.50;4863226;29;19959;-71
2022/01/27 10:43:17;;;;;;;;;;;;;;;2.85;100.00;99428.78;4863252;29;19982;-70
2022/01/27 10:46:06;;;;;;;;;;;;;;;2.91;100.00;99418.41;4865376;29;19966;-71
2022/01/27 10:48:35;;;;;;;;;;;;;;;3.02;100.00;99412.25;4864476;29;20257;-71
2022/01/27 10:51:26;;;;;;;;;;;;;;;3.02;100.00;99412.25;4872734;29;19980;-71
2022/01/27 10:54:38;;;;;;;;;;;;;;;3.13;100.00;99394.22;4868910;29;19975;-71
2022/01/27 10:56:43;;;;;;;;;;;;;;;3.12;100.00;99392.63;4857703;29;19963;-71
2022/01/27 10:59:14;;;;;;;;;;;;;;;3.22;100.00;99372.97;4866652;29;19953;-71
2022/01/27 11:01:51;;;;;;;;;;;;;;;3.35;100.00;99364.84;4866144;29;19957;-71
2022/01/27 11:04:19;;;;;;;;;;;;;;;3.42;100.00;99373.47;4866767;29;19959;-71
2022/01/27 11:06:56;;;;;;;;;;;;;;;3.61;100.00;99369.22;4857055;29;19958;-71
2022/01/27 11:09:24;;;;;;;;;;;;;;;3.79;100.00;99373.59;4859764;29;19954;-71
2022/01/27 11:11:53;;;;;;;;;;;;;;;3.96;100.00;99378.31;4865325;29;20001;-71
2022/01/27 11:14:23;;;;;;;;;;;;;;;4.01;100.00;99374.56;4863374;29;20419;-71
2022/01/27 11:16:56;;;;;;;;;;;;;;;4.29;100.00;99378.53;4865568;29;19950;-71
2022/01/27 11:25:10;;;;;;;;;;;;;;;4.51;100.00;99373.59;4865864;29;19955;-71
2022/01/27 11:27:38;;;;;;;;;;;;;;;4.70;100.00;99373.16;4866320;29;19954;-71
2022/01/27 11:30:09;;;;;;;;;;;;;;;4.85;100.00;99367.06;4861873;29;20214;-70
2022/01/27 11:32:39;;;;;;;;;;;;;;;4.94;100.00;99358.72;4865830;29;19960;-71
2022/01/27 11:35:17;;;;;;;;;;;;;;;5.03;100.00;99353.94;4854771;29;19982;-71
2022/01/27 11:37:54;;;;;;;;;;;;;;;5.24;100.00;99361.13;4856630;29;20340;-71
2022/01/27 11:40:24;;;;;;;;;;;;;;;5.29;100.00;99351.78;4857997;29;19962;-71
2022/01/27 11:42:55;;;;;;;;;;;;;;;5.56;100.00;99354.00;4866152;29;19950;-70
2022/01/27 11:45:22;;;;;;;;;;;;;;;5.66;100.00;99353.59;4861740;29;19959;-70
2022/01/27 11:47:54;;;;;;;;;;;;;;;5.77;100.00;99356.78;4865813;29;19957;-71
2022/01/27 11:51:12;;;;;;;;;;;;;;;5.86;100.00;99349.22;4864549;29;19953;-71
2022/01/27 11:53:45;;;;;;;;;;;;;;;5.76;100.00;99344.88;4874337;29;20340;-71
2022/01/27 11:56:16;;;;;;;;;;;;;;;5.70;100.00;99342.63;4855574;29;19952;-71
2022/01/27 11:58:44;;;;;;;;;;;;;;;5.67;100.00;99335.78;4865510;29;19962;-71
2022/01/27 12:01:17;;;;;;;;;;;;;;;5.50;100.00;99333.16;4865187;29;19959;-71
2022/01/27 12:04:02;;;;;;;;;;;;;;;5.47;100.00;99327.50;4866071;29;19950;-71
2022/01/27 12:06:32;;;;;;;;;;;;;;;5.41;100.00;99323.28;4864858;29;19949;-71
2022/01/27 12:26:18;;;;;;;;;;;;;;;5.70;100.00;99290.72;5071520;28;20289;-68
2022/01/27 12:28:46;;;;;;;;;;;;;;;5.73;100.00;99287.25;5071836;28;19944;-68
2022/01/27 12:31:14;;;;;;;;;;;;;;;5.91;100.00;99290.72;5069786;28;19954;-68
2022/01/27 12:33:44;;;;;;;;;;;;;;;5.78;100.00;99284.28;5072362;28;19953;-69
2022/01/27 12:36:11;;;;;;;;;;;;;;;5.74;100.00;99282.53;5071536;28;19962;-69
2022/01/27 12:38:39;;;;;;;;;;;;;;;5.54;100.00;99284.19;5071006;28;19960;-69
2022/01/27 12:41:06;;;;;;;;;;;;;;;5.22;100.00;99280.22;5070991;28;20368;-69
2022/01/27 12:43:34;;;;;;;;;;;;;;;5.03;100.00;99279.09;5071233;28;19955;-69
2022/01/27 12:46:06;;;;;;;;;;;;;;;4.97;100.00;99272.09;5070519;28;19960;-68
2022/01/27 12:48:34;;;;;;;;;;;;;;;4.95;100.00;99275.22;5068038;28;19955;-68
2022/01/27 12:51:03;;;;;;;;;;;;;;;4.88;100.00;99272.19;5066774;28;19955;-68
2022/01/27 12:53:31;;;;;;;;;;;;;;;4.65;100.00;99279.97;5070112;28;19947;-68
2022/01/27 12:56:05;;;;;;;;;;;;;;;4.60;100.00;99271.88;5070710;28;19967;-69
2022/01/27 12:58:33;;;;;;;;;;;;;;;4.56;100.00;99265.38;5070016;28;19956;-69
2022/01/27 13:01:01;;;;;;;;;;;;;;;4.48;100.00;99265.41;5072369;28;19963;-68
2022/01/27 13:03:29;;;;;;;;;;;;;;;4.43;100.00;99260.88;5075216;28;19952;-68
2022/01/27 13:05:59;;;;;;;;;;;;;;;4.46;100.00;99260.22;5057479;28;19946;-68
2022/01/27 13:08:30;;;;;;;;;;;;;;;4.58;100.00;99249.22;5505377;23;19974;-69
2022/01/27 13:11:02;;;;;;;;;;;;;;;4.56;100.00;99246.00;5030969;28;19976;-69
2022/01/27 13:13:34;;;;;;;;;;;;;;;4.60;100.00;99240.56;5015249;28;19951;-68
2022/01/27 13:16:07;;;;;;;;;;;;;;;4.53;100.00;99238.34;5022424;28;19971;-68
2022/01/27 13:18:57;;;;;;;;;;;;;;;4.37;100.00;99220.69;5031498;28;19959;-68
2022/01/27 13:21:30;;;;;;;;;;;;;;;4.47;100.00;99225.84;5031449;28;19965;-68
2022/01/27 13:24:17;;;;;;;;;;;;;;;4.59;100.00;99225.94;5031240;28;19951;-68
2022/01/27 13:29:59;;;;;;;;;;;;;;;4.87;100.00;99228.97;4656661;30;19978;-67
2022/01/27 13:32:27;;;;;;;;;;;;;;;4.66;100.00;99222.63;4661334;30;20349;-68
2022/01/27 13:34:54;;;;;;;;;;;;;;;4.40;100.00;99222.78;4664663;30;19970;-68
2022/01/27 13:37:32;;;;;;;;;;;;;;;4.45;100.00;99222.59;4653215;30;19961;-68
2022/01/27 13:42:52;;;;;;;;;;;;;;;4.42;100.00;99220.50;4654113;30;19966;-69
2022/01/27 13:45:21;;;;;;;;;;;;;;;4.52;100.00;99219.31;4655525;30;20005;-68
2022/01/27 13:47:48;;;;;;;;;;;;;;;4.39;100.00;99207.31;4656757;30;20203;-69
2022/01/27 13:50:17;;;;;;;;;;;;;;;4.40;100.00;99208.16;4661725;30;20001;-69
2022/01/27 13:52:45;;;;;;;;;;;;;;;4.27;100.00;99206.41;4653028;30;19954;-68
2022/01/27 13:55:15;;;;;;;;;;;;;;;4.22;100.00;99201.88;4667410;30;20232;-68
2022/01/27 13:57:54;;;;;;;;;;;;;;;4.17;100.00;99204.84;4655481;30;19953;-68
2022/01/27 14:00:35;;;;;;;;;;;;;;;4.27;100.00;99206.41;4660890;30;19963;-68
2022/01/27 14:03:12;;;;;;;;;;;;;;;4.06;100.00;99202.78;4665534;30;19955;-68
2022/01/27 14:05:39;;;;;;;;;;;;;;;4.03;100.00;99207.03;4651730;30;19968;-68
2022/01/27 14:08:07;;;;;;;;;;;;;;;3.91;100.00;99207.72;4657801;30;19967;-68
2022/01/27 14:10:39;;;;;;;;;;;;;;;3.93;100.00;99199.09;4663321;30;19959;-68
2022/01/27 14:13:10;;;;;;;;;;;;;;;3.93;100.00;99199.09;4669394;30;19954;-68
2022/01/27 14:15:42;;;;;;;;;;;;;;;3.71;100.00;99202.94;4646216;30;19987;-68
2022/01/27 14:18:11;;;;;;;;;;;;;;;3.45;100.00;99204.94;4661885;30;19958;-68
2022/01/27 14:20:54;;;;;;;;;;;;;;;3.49;100.00;99199.59;4662137;30;19955;-68
2022/01/27 14:23:44;;;;;;;;;;;;;;;3.61;100.00;99195.00;4654711;30;19975;-68
2022/01/27 14:26:58;;;;;;;;;;;;;;;3.58;100.00;99192.88;4656680;30;20283;-68
2022/01/27 14:29:08;;;;;;;;;;;;;;;3.55;100.00;99204.59;4644745;30;19989;-69
2022/01/27 14:31:37;;;;;;;;;;;;;;;3.54;100.00;99196.66;4654266;30;19964;-68
2022/01/27 14:34:06;;;;;;;;;;;;;;;3.65;100.00;99206.19;4661875;30;19953;-68
2022/01/27 14:36:37;;;;;;;;;;;;;;;3.61;100.00;99199.72;4658951;30;19976;-68
2022/01/27 14:39:05;;;;;;;;;;;;;;;3.49;100.00;99203.19;4664862;30;19959;-68
2022/01/27 14:41:32;;;;;;;;;;;;;;;3.40;100.00;99191.31;4651832;30;19966;-68
2022/01/27 14:44:00;;;;;;;;;;;;;;;3.42;100.00;99202.06;4652819;30;19955;-68
2022/01/27 14:46:37;;;;;;;;;;;;;;;3.40;100.00;99201.56;4654504;30;19963;-68
2022/01/27 14:49:06;;;;;;;;;;;;;;;3.25;100.00;99203.69;4664696;30;20395;-68
2022/01/27 14:51:35;;;;;;;;;;;;;;;3.26;100.00;99204.50;4654059;30;19962;-68
2022/01/27 14:54:03;;;;;;;;;;;;;;;3.23;100.00;99205.97;4662262;30;20405;-68
2022/01/27 14:56:32;;;;;;;;;;;;;;;3.21;100.00;99208.25;4659628;30;19988;-68
2022/01/27 14:58:59;;;;;;;;;;;;;;;3.21;100.00;99211.03;4654960;30;20367;-68
2022/01/27 15:01:27;;;;;;;;;;;;;;;3.21;100.00;99208.25;4662786;30;19964;-68
2022/01/27 15:03:54;;;;;;;;;;;;;;;3.18;100.00;99205.31;4656192;30;19976;-68
2022/01/27 15:06:25;;;;;;;;;;;;;;;3.35;100.00;99210.03;4657571;30;19955;-68
2022/01/27 15:08:55;;;;;;;;;;;;;;;3.25;100.00;99206.47;4652757;30;19963;-67
2022/01/27 15:11:22;;;;;;;;;;;;;;;3.26;100.00;99215.56;4662726;30;19960;-68
2022/01/27 15:13:59;;;;;;;;;;;;;;;3.14;100.00;99215.44;4663630;30;19965;-68
2022/01/27 15:21:42;;;;;;;;;;;;;;;3.13;100.00;99217.38;4654839;30;20357;-68
2022/01/27 15:24:10;;;;;;;;;;;;;;;3.09;100.00;99210.06;4661084;30;19960;-68
2022/01/27 15:26:37;;;;;;;;;;;;;;;3.11;100.00;99207.78;4661040;30;19970;-68
2022/01/27 15:29:07;;;;;;;;;;;;;;;3.04;100.00;99213.81;4653993;30;19990;-68
2022/01/27 15:31:35;;;;;;;;;;;;;;;3.06;100.00;99216.22;4653273;30;19967;-68
2022/01/27 15:34:02;;;;;;;;;;;;;;;3.03;100.00;99212.16;4656105;30;19983;-69
2022/01/27 15:36:32;;;;;;;;;;;;;;;2.94;100.00;99208.59;4650774;30;19975;-68
2022/01/27 15:39:15;;;;;;;;;;;;;;;3.08;100.00;99209.25;4651287;30;19961;-68
2022/01/27 15:41:45;;;;;;;;;;;;;;;3.05;100.00;99203.56;4652508;30;19966;-68
2022/01/27 15:44:12;;;;;;;;;;;;;;;3.02;100.00;99205.03;4650056;30;19974;-68
2022/01/27 15:46:40;;;;;;;;;;;;;;;2.84;100.00;99203.41;4652020;30;19962;-68
2022/01/27 15:49:07;;;;;;;;;;;;;;;2.75;100.00;99205.38;4664463;30;19960;-68
2022/01/27 15:51:37;;;;;;;;;;;;;;;2.75;100.00;99199.03;4650168;30;19970;-68
2022/01/27 15:54:04;;;;;;;;;;;;;;;2.75;100.00;99193.50;4651190;30;19965;-68
2022/01/27 15:56:33;;;;;;;;;;;;;;;2.79;100.00;99194.50;4650851;30;19977;-68
2022/01/27 15:59:00;;;;;;;;;;;;;;;2.67;100.00;99195.13;4663324;30;20395;-68
2022/01/27 16:01:28;;;;;;;;;;;;;;;2.76;100.00;99189.63;4664157;30;19965;-68
2022/01/27 16:03:55;;;;;;;;;;;;;;;2.81;100.00;99190.28;4654421;30;20244;-68
2022/01/27 16:06:23;;;;;;;;;;;;;;;2.95;100.00;99188.16;4658849;30;19964;-68
2022/01/27 16:09:06;;;;;;;;;;;;;;;2.85;100.00;99194.00;4654106;30;20262;-68
2022/01/27 16:11:33;;;;;;;;;;;;;;;2.89;100.00;99186.69;4656190;30;19965;-68
2022/01/27 16:14:01;;;;;;;;;;;;;;;2.81;100.00;99195.81;4651119;30;20242;-68
2022/01/27 16:16:28;;;;;;;;;;;;;;;2.84;100.00;99199.84;4656939;30;19981;-68
2022/01/27 16:18:55;;;;;;;;;;;;;;;2.85;100.00;99196.75;4659354;30;20365;-68
2022/01/27 16:21:23;;;;;;;;;;;;;;;2.79;100.00;99205.53;4651771;30;20397;-68
2022/01/27 16:23:52;;;;;;;;;;;;;;;2.89;100.00;99203.25;4655295;30;19978;-68
2022/01/27 16:26:20;;;;;;;;;;;;;;;2.85;100.00;99205.03;4657874;30;19960;-68
2022/01/27 16:28:47;;;;;;;;;;;;;;;2.80;100.00;99196.91;4661388;30;19981;-68
2022/01/27 16:31:14;;;;;;;;;;;;;;;2.91;100.00;99197.41;4652392;30;19968;-68
2022/01/27 16:33:42;;;;;;;;;;;;;;;2.72;100.00;99205.19;4653364;30;19955;-68
2022/01/27 16:36:10;;;;;;;;;;;;;;;2.70;100.00;99199.19;4660153;30;19967;-68
2022/01/27 16:38:37;;;;;;;;;;;;;;;2.75;100.00;99199.03;4653610;30;20462;-67
2022/01/27 16:41:05;;;;;;;;;;;;;;;2.63;100.00;99205.19;4656653;30;20350;-68
2022/01/27 16:43:33;;;;;;;;;;;;;;;2.65;100.00;99200.97;4650263;30;19962;-68
2022/01/27 16:46:01;;;;;;;;;;;;;;;2.63;100.00;99197.75;4649583;30;19985;-68
2022/01/27 16:48:28;;;;;;;;;;;;;;;2.66;100.00;99205.34;4658752;30;19965;-68
2022/01/27 16:50:55;;;;;;;;;;;;;;;2.65;100.00;99194.63;4659035;30;19959;-67
2022/01/27 16:53:24;;;;;;;;;;;;;;;2.71;100.00;99204.41;4666311;30;19960;-68
2022/01/27 16:55:51;;;;;;;;;;;;;;;2.59;100.00;99207.78;4654894;30;19982;-68
2022/01/27 16:58:19;;;;;;;;;;;;;;;2.52;100.00;99195.59;4658217;30;19959;-67
2022/01/27 17:00:46;;;;;;;;;;;;;;;2.57;100.00;99198.19;4653296;30;20165;-68
2022/01/27 17:03:13;;;;;;;;;;;;;;;2.60;100.00;99203.06;4653922;30;19959;-68
2022/01/27 17:05:41;;;;;;;;;;;;;;;2.47;100.00;99204.84;4656683;30;19954;-68
2022/01/27 17:08:08;;;;;;;;;;;;;;;2.46;100.00;99206.00;4663689;30;19956;-68
2022/01/27 17:10:36;;;;;;;;;;;;;;;2.41;100.00;99208.91;4652784;30;19957;-68
2022/01/27 17:13:03;;;;;;;;;;;;;;;2.47;100.00;99201.31;4666237;30;20159;-70
2022/01/27 17:15:30;;;;;;;;;;;;;;;2.40;100.00;99199.00;4652722;30;19961;-68
2022/01/27 17:17:58;;;;;;;;;;;;;;;2.42;100.00;99206.97;4649215;30;19968;-68
2022/01/27 17:20:25;;;;;;;;;;;;;;;2.41;100.00;99191.53;4649218;30;20232;-68
2022/01/27 17:22:53;;;;;;;;;;;;;;;2.47;100.00;99204.06;4664617;30;19987;-68
2022/01/27 17:25:23;;;;;;;;;;;;;;;2.48;100.00;99205.66;4654540;30;19963;-68
2022/01/27 17:27:50;;;;;;;;;;;;;;;2.52;100.00;99209.41;4654435;30;19968;-68
2022/01/27 17:30:18;;;;;;;;;;;;;;;2.53;100.00;99202.75;4654559;30;19991;-68
2022/01/27 17:32:46;;;;;;;;;;;;;;;2.50;100.00;99203.38;4654694;30;19957;-68
2022/01/27 17:35:14;;;;;;;;;;;;;;;2.56;100.00;99200.16;4649492;30;19967;-68
2022/01/27 17:37:43;;;;;;;;;;;;;;;2.58;100.00;99194.31;4647766;30;20390;-68
2022/01/27 17:40:11;;;;;;;;;;;;;;;2.49;100.00;99207.31;4650531;30;19956;-67
2022/01/27 17:42:42;;;;;;;;;;;;;;;2.46;100.00;99203.25;4659489;30;19962;-68
2022/01/27 17:45:10;;;;;;;;;;;;;;;2.43;100.00;99190.06;4666533;30;19964;-68
2022/01/27 17:47:37;;;;;;;;;;;;;;;2.35;100.00;99196.38;4661817;30;19956;-68
2022/01/27 17:50:06;;;;;;;;;;;;;;;2.39;100.00;99204.84;4663433;30;19962;-67
2022/01/27 17:52:33;;;;;;;;;;;;;;;2.45;100.00;99193.31;4661792;30;20040;-68
2022/01/27 17:55:01;;;;;;;;;;;;;;;2.48;100.00;99195.44;4652751;30;19956;-69
2022/01/27 17:57:28;;;;;;;;;;;;;;;2.48;100.00;99200.16;4659655;30;19969;-68
2022/01/27 17:59:57;;;;;;;;;;;;;;;2.43;100.00;99195.59;4656360;30;19962;-68
2022/01/27 18:02:25;;;;;;;;;;;;;;;2.39;100.00;99191.88;4656342;30;19976;-68
2022/01/27 18:04:52;;;;;;;;;;;;;;;2.39;100.00;99191.06;4659998;30;19961;-68
2022/01/27 18:07:21;;;;;;;;;;;;;;;2.42;100.00;99190.41;4658494;30;20342;-68
2022/01/27 18:09:49;;;;;;;;;;;;;;;2.47;100.00;99181.97;4662531;30;19987;-68
2022/01/27 18:12:18;;;;;;;;;;;;;;;2.46;100.00;99188.63;4660908;30;19962;-68
2022/01/27 18:14:46;;;;;;;;;;;;;;;2.45;100.00;99171.25;4659128;30;19963;-68
2022/01/27 18:17:13;;;;;;;;;;;;;;;2.43;100.00;99176.28;4667501;30;19987;-68
2022/01/27 18:19:40;;;;;;;;;;;;;;;2.39;100.00;99164.28;4655542;30;20250;-68
2022/01/27 18:22:08;;;;;;;;;;;;;;;2.41;100.00;99173.03;4663657;30;19962;-68
2022/01/27 18:24:35;;;;;;;;;;;;;;;2.46;100.00;99169.31;4662995;30;19965;-68
2022/01/27 18:27:02;;;;;;;;;;;;;;;2.34;100.00;99163.59;4657052;30;19962;-68
2022/01/27 18:29:30;;;;;;;;;;;;;;;2.41;100.00;99174.97;4667208;30;19984;-67
2022/01/27 18:31:58;;;;;;;;;;;;;;;2.33;100.00;99175.78;4658430;30;19969;-67
2022/01/27 18:34:25;;;;;;;;;;;;;;;2.30;100.00;99176.44;4664186;30;20368;-68
2022/01/27 18:36:52;;;;;;;;;;;;;;;2.30;100.00;99173.69;4664690;30;20269;-68
2022/01/27 18:39:20;;;;;;;;;;;;;;;2.37;100.00;99174.00;4654832;30;19968;-68
2022/01/27 18:41:47;;;;;;;;;;;;;;;2.37;100.00;99169.28;4652943;30;19957;-68
2022/01/27 18:44:14;;;;;;;;;;;;;;;2.33;100.00;99175.78;4652780;30;19969;-68
2022/01/27 18:46:43;;;;;;;;;;;;;;;2.32;100.00;99186.03;4653024;30;19963;-68
2022/01/27 18:49:11;;;;;;;;;;;;;;;2.32;100.00;99177.75;4653195;30;19960;-68
2022/01/27 18:51:38;;;;;;;;;;;;;;;2.22;100.00;99164.25;4654054;30;19967;-68
2022/01/27 18:54:06;;;;;;;;;;;;;;;2.20;100.00;99160.19;4656834;30;19959;-68
2022/01/27 18:56:34;;;;;;;;;;;;;;;2.15;100.00;99160.34;4650129;30;19991;-68
2022/01/27 18:59:01;;;;;;;;;;;;;;;2.14;100.00;99169.72;4650201;30;19962;-68
2022/01/27 19:01:30;;;;;;;;;;;;;;;2.17;100.00;99172.69;4653582;30;19957;-68
2022/01/27 19:03:58;;;;;;;;;;;;;;;2.25;100.00;99166.34;4648857;30;19966;-68
2022/01/27 19:06:25;;;;;;;;;;;;;;;2.23;100.00;99165.03;4652928;30;19964;-68
2022/01/27 19:08:52;;;;;;;;;;;;;;;2.23;100.00;99167.78;4651770;30;19964;-68
2022/01/27 19:11:20;;;;;;;;;;;;;;;2.24;100.00;99166.66;4664709;30;20263;-68
2022/01/27 19:13:47;;;;;;;;;;;;;;;2.22;100.00;99163.44;4656657;30;19964;-68
2022/01/27 19:16:15;;;;;;;;;;;;;;;2.19;100.00;99166.81;4668875;30;19972;-68
2022/01/27 19:18:42;;;;;;;;;;;;;;;2.18;100.00;99162.44;4666608;30;19976;-68
2022/01/27 19:21:09;;;;;;;;;;;;;;;2.22;100.00;99164.25;4666365;30;19953;-68
2022/01/27 19:23:45;;;;;;;;;;;;;;;2.21;100.00;99156.28;4651279;30;19961;-68
2022/01/27 19:26:20;;;;;;;;;;;;;;;2.29;100.00;99148.03;4660276;30;19963;-68
2022/01/27 19:28:47;;;;;;;;;;;;;;;2.35;100.00;99148.66;4662549;30;20062;-68
2022/01/27 19:31:15;;;;;;;;;;;;;;;2.38;100.00;99142.50;4649370;30;19966;-68
2022/01/27 19:33:42;;;;;;;;;;;;;;;2.35;100.00;99143.13;4648973;30;20388;-67
2022/01/27 19:36:12;;;;;;;;;;;;;;;2.33;100.00;99139.91;4648310;30;19958;-67
2022/01/27 19:38:41;;;;;;;;;;;;;;;2.34;100.00;99147.06;4647941;30;19975;-67
2022/01/27 19:41:09;;;;;;;;;;;;;;;2.35;100.00;99143.13;4651685;30;19967;-67
2022/01/27 19:43:41;;;;;;;;;;;;;;;2.34;100.00;99144.28;4651529;30;19959;-68
2022/01/27 19:46:10;;;;;;;;;;;;;;;2.39;100.00;99142.19;4650115;30;20254;-68
2022/01/27 19:48:39;;;;;;;;;;;;;;;2.44;100.00;99146.72;4651780;30;19993;-68
2022/01/27 19:51:13;;;;;;;;;;;;;;;2.46;100.00;99150.78;4649870;30;19955;-68
2022/01/27 19:53:43;;;;;;;;;;;;;;;2.42;100.00;99152.56;4651894;30;19952;-68
2022/01/27 19:56:11;;;;;;;;;;;;;;;2.41;100.00;99148.19;4652083;30;19960;-68
2022/01/27 19:58:40;;;;;;;;;;;;;;;2.41;100.00;99153.72;4651401;30;19981;-68
2022/01/27 20:01:07;;;;;;;;;;;;;;;2.43;100.00;99153.38;4650518;30;19956;-68
2022/01/27 20:03:37;;;;;;;;;;;;;;;2.41;100.00;99158.41;4651822;30;19957;-67
2022/01/27 20:06:05;;;;;;;;;;;;;;;2.42;100.00;99158.06;4649475;30;19957;-68
2022/01/27 20:08:35;;;;;;;;;;;;;;;2.40;100.00;99162.28;4651720;30;19956;-67
2022/01/27 20:11:04;;;;;;;;;;;;;;;2.35;100.00;99156.94;4650312;30;20351;-67
2022/01/27 20:13:33;;;;;;;;;;;;;;;2.35;100.00;99162.44;4652170;30;19953;-68
2022/01/27 20:16:03;;;;;;;;;;;;;;;2.33;100.00;99168.31;4651877;30;20386;-67
2022/01/27 20:18:31;;;;;;;;;;;;;;;2.39;100.00;99175.31;4651686;30;19971;-67
2022/01/27 20:20:59;;;;;;;;;;;;;;;2.33;100.00;99173.00;4659948;30;20346;-69
2022/01/27 20:23:27;;;;;;;;;;;;;;;2.26;100.00;99153.38;4654140;30;19973;-68
2022/01/27 20:25:56;;;;;;;;;;;;;;;2.28;100.00;99154.66;4650642;30;19966;-69
2022/01/27 20:28:24;;;;;;;;;;;;;;;2.27;100.00;99138.44;4652033;30;20278;-68
